Time;durP1;ratioP1;P1;durP2;ratioP2;P2;SDS_P1;SDS_P2;PMS_P1;PMS_P2;Temp;Humidity;BMP_temperature;BMP_pressure;BME280_temperature;BME280_humidity;BME280_pressure;Samples;Min_cycle;Max_cycle;Signal;HPM_P1;HPM_P2
2022/01/21 00:01:00;;;;;;;0.80;0.20;;;8.50;32.80;;;;;;5030817;28;20410;-80
2022/01/21 00:03:28;;;;;;;0.70;0.50;;;8.60;32.70;;;;;;5016109;28;20441;-78
2022/01/21 00:05:55;;;;;;;0.75;0.25;;;8.60;32.90;;;;;;5032095;28;20402;-81
2022/01/21 00:08:22;;;;;;;0.90;0.40;;;8.50;33.50;;;;;;5015691;28;20418;-78
2022/01/21 00:10:50;;;;;;;0.50;0.20;;;8.30;34.60;;;;;;5021531;28;20416;-77
2022/01/21 00:13:34;;;;;;;1.10;0.20;;;8.20;34.50;;;;;;5029836;28;20418;-77
2022/01/21 00:16:12;;;;;;;0.80;0.30;;;8.10;34.40;;;;;;5028350;28;20914;-76
2022/01/21 00:18:43;;;;;;;1.20;0.38;;;8.00;34.90;;;;;;5015948;28;20420;-77
2022/01/21 00:32:13;;;;;;;0.60;0.30;;;7.70;35.80;;;;;;5030013;28;20421;-76
2022/01/21 00:34:40;;;;;;;0.60;0.30;;;7.70;35.50;;;;;;5030631;28;20422;-77
2022/01/21 00:37:07;;;;;;;0.55;0.40;;;7.70;35.00;;;;;;5030940;28;20410;-77
2022/01/21 00:39:35;;;;;;;0.70;0.35;;;7.70;35.40;;;;;;5010658;28;20417;-81
2022/01/21 00:42:25;;;;;;;0.50;0.30;;;7.80;35.50;;;;;;5027904;28;20473;-76
2022/01/21 00:44:58;;;;;;;1.00;0.32;;;7.70;35.80;;;;;;5029571;28;20429;-77
2022/01/21 00:47:29;;;;;;;0.50;0.40;;;7.50;36.10;;;;;;5017769;28;20426;-77
2022/01/21 00:49:56;;;;;;;1.05;0.30;;;7.50;35.70;;;;;;5028237;28;20418;-77
2022/01/21 00:52:24;;;;;;;0.60;0.32;;;7.50;36.00;;;;;;5030486;28;20418;-81
2022/01/21 00:54:51;;;;;;;0.95;0.30;;;7.50;35.40;;;;;;5025492;28;20904;-77
2022/01/21 00:57:18;;;;;;;0.80;0.40;;;7.70;35.10;;;;;;5021114;28;20409;-78
2022/01/21 00:59:45;;;;;;;0.60;0.40;;;7.70;35.30;;;;;;5016591;28;20486;-78
2022/01/21 01:02:12;;;;;;;0.60;0.30;;;7.80;35.50;;;;;;5029830;28;20790;-81
2022/01/21 01:04:39;;;;;;;0.75;0.35;;;7.70;35.00;;;;;;5028246;28;20422;-75
2022/01/21 01:07:07;;;;;;;0.47;0.30;;;7.50;35.60;;;;;;5029341;28;20410;-76
2022/01/21 01:09:34;;;;;;;0.60;0.30;;;7.40;36.70;;;;;;5016626;28;20415;-81
2022/01/21 01:20:04;;;;;;;1.40;0.30;;;7.10;36.50;;;;;;4951385;28;1891135;-79
2022/01/21 01:22:45;;;;;;;0.50;0.30;;;7.30;36.00;;;;;;5045015;28;20431;-76
2022/01/21 01:27:58;;;;;;;7.07;0.47;;;7.50;35.30;;;;;;5071205;28;20411;-81
2022/01/21 01:30:28;;;;;;;0.50;0.40;;;7.40;34.90;;;;;;5050458;28;20416;-81
2022/01/21 01:32:58;;;;;;;1.15;0.32;;;7.30;35.80;;;;;;5058885;28;20968;-75
2022/01/21 01:35:28;;;;;;;1.00;0.30;;;7.40;35.80;;;;;;5058708;28;20422;-78
2022/01/21 01:40:35;;;;;;;1.15;0.28;;;7.30;36.10;;;;;;5060557;28;20790;-78
2022/01/21 01:50:58;;;;;;;0.85;0.40;;;7.50;35.00;;;;;;5058017;28;20793;-81
2022/01/21 01:53:39;;;;;;;1.00;0.30;;;7.50;35.20;;;;;;5031355;28;20415;-76
2022/01/21 01:56:10;;;;;;;1.10;0.50;;;7.40;35.40;;;;;;5052166;28;20419;-77
2022/01/21 01:58:38;;;;;;;0.85;0.50;;;7.40;36.20;;;;;;5053345;28;20414;-79
2022/01/21 02:01:06;;;;;;;0.75;0.40;;;7.30;36.40;;;;;;5037684;28;20465;-76
2022/01/21 02:03:35;;;;;;;2.20;0.30;;;7.10;36.70;;;;;;5036048;28;20412;-81
2022/01/21 02:06:03;;;;;;;1.70;1.03;;;7.10;36.50;;;;;;5030857;28;20424;-76
2022/01/21 02:08:31;;;;;;;1.57;0.73;;;7.00;38.30;;;;;;5057877;28;20953;-78
2022/01/21 02:10:58;;;;;;;2.35;0.40;;;6.70;38.50;;;;;;5041887;28;20418;-76
2022/01/21 02:13:29;;;;;;;1.10;0.40;;;6.80;36.90;;;;;;5038136;28;20420;-76
2022/01/21 02:15:56;;;;;;;0.75;0.30;;;6.80;36.60;;;;;;5025392;28;20511;-81
2022/01/21 02:23:55;;;;;;;3.45;2.05;;;6.50;40.30;;;;;;5068910;28;20418;-77
2022/01/21 02:26:23;;;;;;;3.40;2.08;;;6.20;41.20;;;;;;5049530;28;20436;-77
2022/01/21 02:28:53;;;;;;;2.53;1.67;;;5.90;42.20;;;;;;5018862;28;20902;-78
2022/01/21 02:31:21;;;;;;;2.63;1.60;;;5.70;42.60;;;;;;5029721;28;20416;-77
2022/01/21 02:33:48;;;;;;;2.00;1.17;;;5.60;42.90;;;;;;5040045;28;20406;-81
2022/01/21 02:36:15;;;;;;;1.10;0.50;;;5.40;42.70;;;;;;5032836;28;20499;-77
2022/01/21 02:38:42;;;;;;;0.70;0.30;;;5.40;42.10;;;;;;5064623;28;20415;-78
2022/01/21 02:41:09;;;;;;;0.60;0.30;;;5.40;40.70;;;;;;5042738;28;20414;-78
2022/01/21 02:43:36;;;;;;;1.10;0.40;;;5.50;40.20;;;;;;5030114;28;20414;-78
2022/01/21 02:46:07;;;;;;;0.50;0.30;;;5.60;40.20;;;;;;5038249;28;20796;-78
2022/01/21 02:48:38;;;;;;;0.50;0.30;;;5.60;41.20;;;;;;5040870;28;20478;-77
2022/01/21 02:51:06;;;;;;;1.30;0.30;;;5.50;41.20;;;;;;5050511;28;20413;-75
2022/01/21 02:56:17;;;;;;;1.30;0.32;;;5.70;40.50;;;;;;5065199;28;20430;-81
2022/01/21 02:58:46;;;;;;;0.50;0.30;;;5.60;40.60;;;;;;5026008;28;20881;-78
2022/01/21 03:01:17;;;;;;;3.25;1.50;;;5.60;39.90;;;;;;5039453;28;20921;-75
2022/01/21 03:03:46;;;;;;;4.68;2.10;;;5.50;42.10;;;;;;5047289;28;20423;-78
2022/01/21 03:06:15;;;;;;;3.30;2.10;;;5.30;42.80;;;;;;5028696;28;20437;-81
2022/01/21 03:08:44;;;;;;;3.88;2.30;;;5.10;43.90;;;;;;5036241;28;20422;-76
2022/01/21 03:11:12;;;;;;;3.42;2.05;;;4.90;44.90;;;;;;5049078;28;20418;-78
2022/01/21 03:13:44;;;;;;;4.18;2.20;;;4.70;45.30;;;;;;5038436;28;20408;-77
2022/01/21 03:16:11;;;;;;;3.97;2.38;;;4.50;45.80;;;;;;5035522;28;20923;-77
2022/01/21 03:18:39;;;;;;;4.72;2.63;;;4.40;46.40;;;;;;5048915;28;20900;-80
2022/01/21 03:21:09;;;;;;;4.03;2.35;;;4.10;47.70;;;;;;5039617;28;20416;-77
2022/01/21 03:23:37;;;;;;;4.17;2.90;;;4.00;48.10;;;;;;5037068;28;20411;-81
2022/01/21 03:26:04;;;;;;;3.73;2.47;;;3.90;48.40;;;;;;5070126;28;20415;-77
2022/01/21 03:28:31;;;;;;;3.70;1.35;;;3.70;48.50;;;;;;5039945;28;20446;-76
2022/01/21 03:30:58;;;;;;;2.22;1.10;;;3.70;47.10;;;;;;5039688;28;20411;-78
2022/01/21 03:33:25;;;;;;;1.38;0.60;;;3.80;46.50;;;;;;5026698;28;20900;-78
2022/01/21 03:35:56;;;;;;;2.43;1.23;;;3.80;45.90;;;;;;5019751;28;20443;-78
2022/01/21 03:38:27;;;;;;;2.30;1.00;;;3.80;46.60;;;;;;5044961;28;20896;-81
2022/01/21 03:40:55;;;;;;;2.22;1.23;;;3.80;47.10;;;;;;5026713;28;20420;-77
2022/01/21 03:43:23;;;;;;;2.63;1.63;;;3.70;47.60;;;;;;5049619;28;20969;-77
2022/01/21 03:45:51;;;;;;;3.83;2.20;;;3.60;48.00;;;;;;5046152;28;20414;-78
2022/01/21 03:48:19;;;;;;;3.75;2.40;;;3.50;48.60;;;;;;5038005;28;20476;-76
2022/01/21 03:50:47;;;;;;;4.03;2.50;;;3.30;49.20;;;;;;5046886;28;20850;-77
2022/01/21 03:53:14;;;;;;;4.13;2.60;;;3.00;50.20;;;;;;5044886;28;20413;-75
2022/01/21 03:55:41;;;;;;;4.97;2.90;;;2.90;50.60;;;;;;5031531;28;20413;-76
2022/01/21 03:58:10;;;;;;;4.47;2.40;;;2.90;51.30;;;;;;5045852;28;20488;-78
2022/01/21 04:00:40;;;;;;;3.72;2.33;;;2.80;50.80;;;;;;5059136;28;20412;-81
2022/01/21 04:03:07;;;;;;;4.25;2.15;;;2.80;51.00;;;;;;5047629;28;20414;-78
2022/01/21 04:05:35;;;;;;;3.75;2.33;;;2.70;51.30;;;;;;5052000;28;20395;-78
2022/01/21 04:08:03;;;;;;;2.55;1.70;;;2.50;51.50;;;;;;5036470;28;20416;-81
2022/01/21 04:10:30;;;;;;;2.80;1.40;;;2.50;51.30;;;;;;5051171;28;20499;-77
2022/01/21 04:12:57;;;;;;;2.72;1.70;;;2.50;51.10;;;;;;5051328;28;20444;-77
2022/01/21 04:15:25;;;;;;;3.67;1.50;;;2.50;51.30;;;;;;5026029;28;20480;-78
2022/01/21 04:17:53;;;;;;;0.80;0.60;;;2.50;51.50;;;;;;5027445;28;20406;-77
2022/01/21 04:20:20;;;;;;;0.43;0.30;;;2.60;49.50;;;;;;5033562;28;20439;-78
2022/01/21 04:22:47;;;;;;;1.00;0.30;;;3.00;46.80;;;;;;5032061;28;20409;-79
2022/01/21 04:25:14;;;;;;;0.30;0.20;;;3.40;45.80;;;;;;5017595;28;20470;-76
2022/01/21 04:27:41;;;;;;;0.80;0.30;;;3.70;46.00;;;;;;5019153;28;20492;-77
2022/01/21 04:30:09;;;;;;;0.50;0.30;;;4.00;43.90;;;;;;5022173;28;20414;-77
2022/01/21 04:32:36;;;;;;;1.20;0.32;;;4.20;43.30;;;;;;5017155;28;20398;-79
2022/01/21 04:35:04;;;;;;;0.32;0.20;;;4.30;42.70;;;;;;5031762;28;20419;-81
2022/01/21 04:37:31;;;;;;;1.23;0.73;;;4.50;42.40;;;;;;5020104;28;20476;-76
2022/01/21 04:40:09;;;;;;;2.70;1.45;;;4.60;43.20;;;;;;5028133;28;20486;-76
2022/01/21 04:48:13;;;;;;;0.83;0.50;;;4.60;42.40;;;;;;5012388;28;20979;-76
2022/01/21 04:50:52;;;;;;;0.70;0.40;;;4.60;42.00;;;;;;5022948;28;20444;-78
2022/01/21 04:53:20;;;;;;;0.68;0.30;;;4.60;42.00;;;;;;5030499;28;20468;-81
2022/01/21 04:55:48;;;;;;;0.85;0.40;;;4.50;42.00;;;;;;5027898;28;20820;-76
2022/01/21 04:58:15;;;;;;;1.02;0.40;;;4.50;41.90;;;;;;5004544;28;20421;-80
2022/01/21 05:00:43;;;;;;;0.73;0.30;;;4.70;41.20;;;;;;5031907;28;20898;-77
2022/01/21 05:03:12;;;;;;;0.87;0.47;;;4.70;41.30;;;;;;5031110;28;20542;-77
2022/01/21 05:05:40;;;;;;;1.30;0.30;;;4.80;40.90;;;;;;5030740;28;20411;-75
2022/01/21 05:08:10;;;;;;;0.70;0.30;;;4.90;40.70;;;;;;5025111;28;20472;-77
2022/01/21 05:10:38;;;;;;;0.98;0.32;;;4.90;40.80;;;;;;5025336;28;20412;-78
2022/01/21 05:13:05;;;;;;;0.80;0.40;;;4.90;41.00;;;;;;5029251;28;20814;-76
2022/01/21 05:18:22;;;;;;;1.15;0.60;;;4.70;41.40;;;;;;5012890;28;20406;-76
2022/01/21 05:20:49;;;;;;;1.35;0.73;;;4.60;41.70;;;;;;5047698;28;20462;-78
2022/01/21 05:23:16;;;;;;;0.85;0.50;;;4.60;41.80;;;;;;5064183;28;20464;-81
2022/01/21 05:25:43;;;;;;;1.08;0.70;;;4.50;41.90;;;;;;5050411;28;20900;-76
2022/01/21 05:28:11;;;;;;;0.93;0.50;;;4.50;42.00;;;;;;5030758;28;20835;-78
2022/01/21 05:30:38;;;;;;;1.33;0.60;;;4.40;42.30;;;;;;5031687;28;20865;-82
2022/01/21 05:33:05;;;;;;;1.30;0.80;;;4.30;42.50;;;;;;5047376;28;20406;-78
2022/01/21 05:35:32;;;;;;;1.65;0.77;;;4.30;42.80;;;;;;5052899;28;20833;-76
2022/01/21 05:37:59;;;;;;;1.98;0.55;;;4.20;43.00;;;;;;5072377;28;20825;-76
2022/01/21 05:40:26;;;;;;;1.70;0.40;;;4.20;42.60;;;;;;5043135;28;20912;-79
2022/01/21 05:42:53;;;;;;;0.80;0.50;;;4.30;42.50;;;;;;5035541;28;20892;-77
2022/01/21 05:48:06;;;;;;;1.27;0.70;;;4.30;42.20;;;;;;5032289;28;20414;-81
2022/01/21 05:50:33;;;;;;;1.67;0.63;;;4.40;41.90;;;;;;5022819;28;20436;-76
2022/01/21 05:53:04;;;;;;;2.00;0.82;;;4.50;41.90;;;;;;5040145;28;20428;-78
2022/01/21 05:55:31;;;;;;;2.60;1.10;;;4.50;41.70;;;;;;5049479;28;20434;-77
2022/01/21 05:57:58;;;;;;;1.80;0.90;;;4.60;41.70;;;;;;5039168;28;20955;-80
2022/01/21 06:00:25;;;;;;;4.28;3.10;;;4.60;41.50;;;;;;5036356;28;20416;-77
2022/01/21 06:02:52;;;;;;;4.80;3.08;;;4.40;44.00;;;;;;5040672;28;20405;-78
2022/01/21 06:05:19;;;;;;;4.20;2.78;;;3.80;46.20;;;;;;5044244;28;20408;-77
2022/01/21 06:07:46;;;;;;;4.95;3.13;;;3.30;47.30;;;;;;5036546;28;20412;-77
2022/01/21 06:10:13;;;;;;;6.03;3.58;;;2.90;48.60;;;;;;5024210;28;20405;-77
2022/01/21 06:12:40;;;;;;;4.95;2.92;;;2.70;49.30;;;;;;5065079;28;20398;-77
2022/01/21 06:15:07;;;;;;;7.85;4.47;;;2.50;49.60;;;;;;5034137;28;20418;-77
2022/01/21 06:17:34;;;;;;;5.73;4.07;;;2.40;51.50;;;;;;5027534;28;20431;-77
2022/01/21 06:20:01;;;;;;;7.53;4.70;;;2.20;54.90;;;;;;5033337;28;20411;-80
2022/01/21 06:22:29;;;;;;;7.93;4.90;;;2.00;55.20;;;;;;5050811;28;20466;-78
2022/01/21 06:24:56;;;;;;;7.35;4.60;;;1.80;55.60;;;;;;5040591;28;20478;-78
2022/01/21 06:27:27;;;;;;;7.45;4.25;;;1.70;55.50;;;;;;5041447;28;20448;-80
2022/01/21 06:29:55;;;;;;;7.28;5.80;;;1.60;55.80;;;;;;5054719;28;20880;-77
2022/01/21 06:32:22;;;;;;;9.87;5.70;;;1.50;55.80;;;;;;5041393;28;20453;-77
2022/01/21 06:34:49;;;;;;;6.90;4.88;;;1.50;55.70;;;;;;5040138;28;20541;-80
2022/01/21 06:37:16;;;;;;;4.93;3.07;;;1.40;55.50;;;;;;5044043;28;20420;-81
2022/01/21 06:39:43;;;;;;;6.25;3.80;;;1.50;54.80;;;;;;5048569;28;20499;-77
2022/01/21 06:42:10;;;;;;;5.85;3.50;;;1.40;54.80;;;;;;5048613;28;20420;-78
2022/01/21 06:44:37;;;;;;;7.03;3.78;;;1.30;54.80;;;;;;5048694;28;20430;-77
2022/01/21 06:47:05;;;;;;;8.57;5.40;;;1.10;55.60;;;;;;5069926;28;20579;-76
2022/01/21 06:49:32;;;;;;;8.20;5.30;;;0.90;57.60;;;;;;5041606;28;20474;-81
2022/01/21 06:51:59;;;;;;;8.43;5.03;;;0.50;60.70;;;;;;5038181;28;20467;-77
2022/01/21 06:54:26;;;;;;;8.35;5.07;;;0.20;62.10;;;;;;5069207;28;20782;-77
2022/01/21 06:56:53;;;;;;;8.48;4.95;;;-0.10;62.80;;;;;;5042409;28;20416;-77
2022/01/21 06:59:20;;;;;;;9.90;6.28;;;-0.10;62.70;;;;;;5049808;28;20978;-77
2022/01/21 07:01:47;;;;;;;8.63;5.43;;;-0.10;62.80;;;;;;5040014;28;20478;-77
2022/01/21 07:04:14;;;;;;;9.18;5.53;;;-0.10;62.70;;;;;;5034160;28;20411;-77
2022/01/21 07:06:41;;;;;;;9.10;5.95;;;-0.10;62.60;;;;;;5069080;28;20411;-77
2022/01/21 07:09:08;;;;;;;11.05;6.20;;;-0.10;63.50;;;;;;5044097;28;20471;-77
2022/01/21 07:11:34;;;;;;;9.77;6.35;;;-0.40;64.40;;;;;;5050562;28;20908;-81
2022/01/21 07:14:01;;;;;;;8.98;5.65;;;-0.40;64.10;;;;;;5031478;28;20416;-77
2022/01/21 07:16:28;;;;;;;11.33;6.53;;;-0.40;63.80;;;;;;5062674;28;20984;-80
2022/01/21 07:18:56;;;;;;;9.38;6.43;;;-0.40;64.00;;;;;;5038940;28;20404;-77
2022/01/21 07:21:23;;;;;;;11.27;6.47;;;-0.40;63.80;;;;;;5037549;28;20419;-77
2022/01/21 07:23:50;;;;;;;11.38;6.85;;;-0.40;63.90;;;;;;5048491;28;20895;-78
2022/01/21 07:26:17;;;;;;;12.45;7.03;;;-0.30;64.60;;;;;;5021677;28;20422;-77
2022/01/21 07:28:44;;;;;;;12.20;7.07;;;-0.30;64.70;;;;;;5036038;28;20409;-77
2022/01/21 07:31:11;;;;;;;21.85;13.63;;;-0.30;64.60;;;;;;5033724;28;20817;-77
2022/01/21 07:33:38;;;;;;;14.63;9.00;;;-0.30;64.50;;;;;;5049565;28;20416;-77
2022/01/21 07:36:06;;;;;;;15.02;8.68;;;-0.30;64.50;;;;;;5042792;28;20524;-77
2022/01/21 07:38:33;;;;;;;20.13;12.77;;;-0.30;64.60;;;;;;5032622;28;20423;-77
2022/01/21 07:41:00;;;;;;;20.65;13.95;;;-0.20;64.40;;;;;;5036647;28;20405;-80
2022/01/21 07:43:27;;;;;;;22.10;15.00;;;-0.10;64.00;;;;;;5039952;28;20417;-77
2022/01/21 07:45:54;;;;;;;19.67;13.38;;;0.00;63.90;;;;;;5042802;28;20980;-78
2022/01/21 07:48:21;;;;;;;18.83;11.18;;;0.00;64.00;;;;;;5061464;28;20414;-77
2022/01/21 07:50:48;;;;;;;22.02;12.82;;;0.10;64.30;;;;;;5033570;28;20768;-77
2022/01/21 07:53:15;;;;;;;17.63;10.23;;;0.10;64.50;;;;;;5053995;28;20482;-77
2022/01/21 07:55:44;;;;;;;17.23;12.15;;;0.30;66.00;;;;;;5055265;28;20464;-77
2022/01/21 07:58:12;;;;;;;13.95;8.10;;;0.60;64.60;;;;;;5073099;28;20767;-77
2022/01/21 08:00:39;;;;;;;11.68;7.32;;;0.60;65.80;;;;;;5044564;28;20415;-81
2022/01/21 08:03:06;;;;;;;11.20;7.43;;;0.50;66.00;;;;;;5041579;28;20415;-78
2022/01/21 08:05:34;;;;;;;12.43;7.45;;;0.80;65.20;;;;;;5048006;28;20416;-77
2022/01/21 08:08:03;;;;;;;12.38;6.88;;;1.10;64.60;;;;;;5034307;28;20408;-77
2022/01/21 08:10:31;;;;;;;14.37;7.83;;;1.40;63.60;;;;;;5038823;28;20413;-78
2022/01/21 08:13:00;;;;;;;13.25;8.55;;;1.60;62.70;;;;;;5043895;28;20408;-76
2022/01/21 08:15:28;;;;;;;13.65;8.18;;;1.80;62.30;;;;;;5046355;28;20410;-78
2022/01/21 08:17:55;;;;;;;11.20;7.27;;;2.10;61.70;;;;;;5055146;28;20452;-78
2022/01/21 08:20:22;;;;;;;18.52;7.57;;;2.40;60.60;;;;;;5032149;28;20772;-78
2022/01/21 08:22:49;;;;;;;11.57;7.45;;;2.60;60.80;;;;;;5036482;28;20404;-78
2022/01/21 08:25:16;;;;;;;12.43;7.05;;;2.60;62.20;;;;;;5044324;28;20415;-81
2022/01/21 08:27:43;;;;;;;11.40;7.53;;;2.60;63.20;;;;;;5049002;28;20414;-77
2022/01/21 08:30:11;;;;;;;12.80;7.97;;;2.80;63.40;;;;;;5029017;28;20508;-78
2022/01/21 08:32:38;;;;;;;11.37;7.47;;;2.80;64.00;;;;;;5036015;28;20460;-78
2022/01/21 08:35:07;;;;;;;11.27;6.88;;;2.90;63.40;;;;;;5018820;28;20432;-82
2022/01/21 08:37:35;;;;;;;12.47;7.23;;;3.30;62.60;;;;;;5033894;28;20424;-82
2022/01/21 08:40:04;;;;;;;28.73;8.02;;;3.60;61.50;;;;;;5053769;28;20439;-77
2022/01/21 08:42:31;;;;;;;11.20;6.70;;;3.80;60.70;;;;;;5052903;28;20461;-77
2022/01/21 08:44:58;;;;;;;13.40;7.15;;;4.00;60.00;;;;;;5066637;28;20817;-77
2022/01/21 08:47:25;;;;;;;10.07;7.18;;;4.30;59.40;;;;;;5049899;28;20431;-77
2022/01/21 08:49:53;;;;;;;14.90;9.38;;;4.60;58.70;;;;;;5047981;28;20413;-77
2022/01/21 08:52:23;;;;;;;14.63;10.95;;;4.80;57.50;;;;;;5031005;28;20410;-81
2022/01/21 08:54:50;;;;;;;15.50;10.25;;;5.10;56.60;;;;;;5055565;28;20456;-77
2022/01/21 08:57:19;;;;;;;14.10;9.60;;;5.30;54.60;;;;;;5061020;28;20410;-77
2022/01/21 08:59:48;;;;;;;18.42;11.13;;;5.60;52.50;;;;;;5053164;28;20469;-77
2022/01/21 09:02:16;;;;;;;16.23;11.10;;;5.80;51.30;;;;;;5062144;28;20900;-75
2022/01/21 09:04:43;;;;;;;17.50;11.77;;;6.00;50.00;;;;;;5043637;28;20468;-82
2022/01/21 09:07:10;;;;;;;18.02;12.07;;;6.20;48.60;;;;;;5049864;28;20775;-78
2022/01/21 09:09:38;;;;;;;21.57;12.43;;;6.40;48.00;;;;;;5034992;28;20867;-79
2022/01/21 09:12:05;;;;;;;18.60;11.57;;;6.60;47.80;;;;;;5046570;28;20512;-77
2022/01/21 09:14:33;;;;;;;16.30;9.32;;;6.70;46.60;;;;;;5049091;28;20416;-78
2022/01/21 09:17:00;;;;;;;37.58;12.25;;;6.90;46.30;;;;;;5025241;28;20412;-77
2022/01/21 09:19:28;;;;;;;10.18;7.28;;;7.00;45.40;;;;;;5045848;28;20416;-78
2022/01/21 09:21:56;;;;;;;8.63;5.97;;;7.00;46.50;;;;;;5050241;28;20447;-82
2022/01/21 09:24:23;;;;;;;9.53;6.30;;;7.00;46.20;;;;;;5050488;28;20413;-80
2022/01/21 09:26:50;;;;;;;8.48;6.00;;;6.90;46.00;;;;;;5026713;28;20861;-77
2022/01/21 09:29:17;;;;;;;8.88;5.80;;;7.10;46.40;;;;;;5049555;28;20408;-77
2022/01/21 09:31:44;;;;;;;9.38;6.40;;;7.20;45.90;;;;;;5045468;28;20775;-76
2022/01/21 09:34:23;;;;;;;8.85;5.43;;;7.30;44.80;;;;;;5049341;28;20406;-80
2022/01/21 09:36:52;;;;;;;9.93;6.00;;;7.40;45.40;;;;;;5037894;28;20442;-77
2022/01/21 09:39:20;;;;;;;9.25;6.55;;;7.50;44.80;;;;;;5026121;28;20909;-77
2022/01/21 09:41:48;;;;;;;11.70;7.20;;;7.70;43.40;;;;;;5063048;28;20411;-77
2022/01/21 09:44:18;;;;;;;11.80;6.97;;;7.90;42.80;;;;;;5053558;28;20398;-79
2022/01/21 09:46:49;;;;;;;7.60;4.97;;;8.10;41.80;;;;;;5031711;28;20414;-77
2022/01/21 09:51:49;;;;;;;8.60;4.80;;;8.30;40.70;;;;;;5067456;28;20422;-82
2022/01/21 09:54:17;;;;;;;7.90;4.40;;;8.50;40.80;;;;;;5046714;28;20409;-77
2022/01/21 09:56:45;;;;;;;6.72;4.38;;;8.60;40.50;;;;;;5061513;28;20421;-76
2022/01/21 09:59:18;;;;;;;8.38;4.10;;;8.60;39.70;;;;;;5060986;28;20404;-77
2022/01/21 10:01:50;;;;;;;7.40;3.95;;;8.50;40.60;;;;;;5043808;28;20413;-81
2022/01/21 10:04:18;;;;;;;6.13;3.80;;;8.50;39.40;;;;;;5042646;28;20413;-81
2022/01/21 10:06:47;;;;;;;5.95;3.70;;;8.60;39.30;;;;;;5042084;28;20427;-77
2022/01/21 10:09:15;;;;;;;6.75;3.55;;;8.80;39.20;;;;;;5051952;28;20414;-79
2022/01/21 10:11:49;;;;;;;6.10;3.83;;;8.90;39.10;;;;;;5043697;28;20431;-78
2022/01/21 10:14:21;;;;;;;8.00;4.03;;;9.00;38.70;;;;;;5063231;28;20910;-82
2022/01/21 10:16:49;;;;;;;4.85;3.40;;;9.00;37.50;;;;;;5041370;28;20416;-78
2022/01/21 10:19:23;;;;;;;;;;;9.10;37.90;;;;;;5043691;28;20057;-77
2022/01/21 10:21:57;;;;;;;;;;;9.20;38.00;;;;;;5050629;28;19982;-77
2022/01/21 10:24:23;;;;;;;;;;;9.20;39.20;;;;;;5049020;28;19931;-78
2022/01/21 10:26:52;;;;;;;;;;;9.40;38.20;;;;;;5052446;28;19924;-78
2022/01/21 10:29:20;;;;;;;;;;;9.50;39.10;;;;;;5072248;28;19979;-78
2022/01/21 10:31:50;;;;;;;;;;;9.60;38.60;;;;;;5035329;28;20372;-77
2022/01/21 10:34:23;;;;;;;;;;;9.60;37.80;;;;;;5059480;28;19970;-82
2022/01/21 10:36:55;;;;;;;;;;;9.60;37.60;;;;;;5049890;28;20430;-78
2022/01/21 10:39:29;;;;;;;;;;;9.70;37.70;;;;;;5064002;28;19920;-78
2022/01/21 10:41:57;;;;;;;;;;;9.80;37.80;;;;;;5064084;28;19924;-77
2022/01/21 10:44:27;;;;;;;;;;;9.90;38.30;;;;;;5051404;28;19925;-78
2022/01/21 10:47:03;;;;;;;;;;;9.90;38.00;;;;;;5031628;28;19920;-77
2022/01/21 10:49:30;;;;;;;;;;;10.10;38.50;;;;;;5065889;28;19920;-78
2022/01/21 10:51:57;;;;;;;;;;;10.10;38.10;;;;;;5042196;28;19975;-82
2022/01/21 10:54:29;;;;;;;;;;;10.20;38.60;;;;;;5067720;28;20115;-78
2022/01/21 10:57:05;;;;;;;;;;;10.20;38.20;;;;;;5052904;28;19920;-78
2022/01/21 10:59:45;;;;;;;;;;;10.20;35.80;;;;;;5061030;28;19924;-75
2022/01/21 11:02:12;;;;;;;;;;;10.00;36.50;;;;;;5055912;28;19920;-82
2022/01/21 11:04:41;;;;;;;;;;;10.00;36.90;;;;;;5046812;28;19967;-78
2022/01/21 11:07:09;;;;;;;;;;;10.00;36.80;;;;;;5044636;28;19998;-82
2022/01/21 11:09:38;;;;;;;;;;;9.90;37.10;;;;;;5041360;28;19982;-80
2022/01/21 11:12:11;;;;;;;;;;;9.90;37.60;;;;;;5042966;28;19928;-79
2022/01/21 11:14:54;;;;;;;;;;;9.90;37.90;;;;;;5044757;28;19920;-78
2022/01/21 11:17:21;;;;;;;;;;;10.00;36.60;;;;;;5053982;28;19924;-77
2022/01/21 11:20:06;;;;;;;;;;;10.00;37.30;;;;;;5055267;28;19920;-80
2022/01/21 11:22:52;;;;;;;;;;;10.20;37.00;;;;;;5075311;28;19921;-82
2022/01/21 11:25:39;;;;;;;;;;;10.10;37.20;;;;;;5055744;28;19921;-82
2022/01/21 11:28:06;;;;;;;;;;;10.30;36.30;;;;;;5058367;28;19936;-77
2022/01/21 11:30:33;;;;;;;;;;;10.40;36.00;;;;;;5056511;28;19974;-77
2022/01/21 11:33:05;;;;;;;;;;;10.60;35.30;;;;;;5058537;28;19920;-80
2022/01/21 11:35:31;;;;;;;;;;;10.60;35.00;;;;;;5056762;28;19921;-80
2022/01/21 11:37:58;;;;;;;;;;;10.60;33.80;;;;;;5036116;28;19995;-78
2022/01/21 11:40:25;;;;;;;;;;;10.70;34.70;;;;;;5050239;28;19928;-77
2022/01/21 11:42:53;;;;;;;;;;;10.60;34.00;;;;;;5057313;28;19935;-78
2022/01/21 11:50:46;;;;;;;;;;;10.70;32.60;;;;;;5066395;28;19924;-77
2022/01/21 11:53:13;;;;;;;;;;;10.70;32.60;;;;;;5043058;28;20372;-79
2022/01/21 11:55:45;;;;;;;;;;;10.60;32.00;;;;;;5024957;28;19933;-80
2022/01/21 11:58:12;;;;;;;;;;;10.60;31.70;;;;;;5054516;28;19920;-77
2022/01/21 12:00:40;;;;;;;;;;;10.60;31.70;;;;;;5033580;28;19971;-77
2022/01/21 12:03:07;;;;;;;;;;;10.60;32.00;;;;;;5036530;28;19920;-78
2022/01/21 12:05:36;;;;;;;;;;;10.70;32.20;;;;;;5067880;28;19920;-77
2022/01/21 12:08:04;;;;;;;;;;;10.80;32.60;;;;;;5054561;28;19921;-77
2022/01/21 12:10:35;;;;;;;;;;;11.00;33.10;;;;;;5050118;28;19920;-77
2022/01/21 12:13:09;;;;;;;;;;;11.10;32.20;;;;;;5049418;28;19920;-78
2022/01/21 12:20:54;;;;;;;;;;;10.90;30.90;;;;;;5061465;28;19982;-79
2022/01/21 12:23:23;;;;;;;;;;;11.00;31.50;;;;;;5042967;28;20411;-77
2022/01/21 12:26:08;;;;;;;;;;;11.00;30.70;;;;;;5053054;28;19920;-77
2022/01/21 12:28:35;;;;;;;;;;;11.00;30.70;;;;;;5070314;28;19956;-79
2022/01/21 12:31:02;;;;;;;;;;;11.20;31.50;;;;;;5052354;28;19921;-77
2022/01/21 12:34:33;;;;;;;;;;;11.40;32.30;;;;;;5064422;28;19929;-77
2022/01/21 12:36:36;;;;;;;;;;;11.50;31.30;;;;;;5067024;28;19920;-78
2022/01/21 12:41:33;;;;;;;;;;;11.30;30.50;;;;;;5050586;28;19935;-77
2022/01/21 12:44:02;;;;;;;;;;;11.20;30.10;;;;;;5063433;28;20342;-76
2022/01/21 12:46:31;;;;;;;;;;;11.20;30.80;;;;;;5032975;28;19936;-77
2022/01/21 12:48:59;;;;;;;;;;;11.40;31.50;;;;;;5034486;28;19920;-77
2022/01/21 12:56:51;;;;;;;;;;;11.40;30.00;;;;;;5052209;28;20381;-77
2022/01/21 12:59:22;;;;;;;;;;;11.50;31.00;;;;;;5040343;28;19928;-76
2022/01/21 13:01:49;;;;;;;;;;;11.60;30.30;;;;;;5066488;28;20277;-79
2022/01/21 13:04:35;;;;;;;;;;;11.60;30.10;;;;;;5063961;28;20388;-79
2022/01/21 13:07:11;;;;;;;;;;;11.50;30.30;;;;;;5054870;28;19924;-79
2022/01/21 13:09:47;;;;;;;;;;;11.40;31.20;;;;;;5042317;28;20385;-78
2022/01/21 13:12:16;;;;;;;;;;;11.30;32.00;;;;;;5034706;28;19936;-79
2022/01/21 13:14:51;;;;;;;;;;;11.30;32.20;;;;;;5061618;28;19947;-78
2022/01/21 13:17:18;;;;;;;;;;;11.30;32.40;;;;;;5040458;28;20388;-76
2022/01/21 13:19:49;;;;;;;;;;;11.10;30.80;;;;;;5037885;28;20422;-77
2022/01/21 13:22:19;;;;;;;;;;;10.90;31.20;;;;;;5059655;28;20265;-79
2022/01/21 13:25:09;;;;;;;;;;;10.80;32.10;;;;;;5042648;28;19925;-77
2022/01/21 13:27:37;;;;;;;;;;;10.60;33.00;;;;;;5064083;28;19924;-78
2022/01/21 13:30:06;;;;;;;;;;;10.30;33.80;;;;;;5066497;28;19928;-77
2022/01/21 13:32:33;;;;;;;;;;;10.30;35.30;;;;;;5066650;28;19928;-79
2022/01/21 13:35:14;;;;;;;;;;;10.30;35.70;;;;;;5066111;28;19930;-79
2022/01/21 13:37:41;;;;;;;;;;;10.40;35.90;;;;;;5053282;28;19924;-79
2022/01/21 13:40:09;;;;;;;;;;;10.40;36.40;;;;;;5051352;28;19925;-79
2022/01/21 13:42:37;;;;;;;;;;;10.50;36.50;;;;;;5032729;28;19958;-79
2022/01/21 13:45:08;;;;;;;;;;;10.40;36.20;;;;;;5037558;28;19981;-79
2022/01/21 13:47:41;;;;;;;;;;;10.50;36.50;;;;;;5086078;28;19924;-76
2022/01/21 13:50:13;;;;;;;;;;;10.50;36.10;;;;;;5037219;28;19931;-78
2022/01/21 13:52:43;;;;;;;;;;;10.40;35.90;;;;;;5048750;28;19927;-76
2022/01/21 13:55:11;;;;;;;;;;;10.50;36.90;;;;;;5066013;28;19931;-79
2022/01/21 13:57:45;;;;;;;;;;;10.30;36.50;;;;;;5038719;28;20394;-79
2022/01/21 14:00:13;;;;;;;;;;;10.10;36.30;;;;;;5058838;28;20410;-79
2022/01/21 14:02:40;;;;;;;;;;;9.90;36.50;;;;;;5059911;28;19920;-79
2022/01/21 14:05:07;;;;;;;;;;;10.00;36.90;;;;;;5047266;28;20389;-78
2022/01/21 14:07:34;;;;;;;;;;;10.10;36.80;;;;;;5052871;28;19921;-77
2022/01/21 14:10:07;;;;;;;;;;;10.00;36.50;;;;;;5065272;28;20410;-76
2022/01/21 14:12:34;;;;;;;;;;;9.90;37.30;;;;;;5047100;28;20390;-77
2022/01/21 14:15:01;;;;;;;;;;;9.90;37.40;;;;;;5053259;28;19981;-79
2022/01/21 14:17:28;;;;;;;;;;;9.90;38.40;;;;;;5044797;28;19948;-79
2022/01/21 14:19:56;;;;;;;;;;;9.90;37.90;;;;;;5059717;28;20034;-77
2022/01/21 14:22:23;;;;;;;;;;;9.90;38.30;;;;;;5047352;28;19921;-79
2022/01/21 14:24:51;;;;;;;;;;;10.00;39.40;;;;;;5054379;28;20481;-78
2022/01/21 14:27:28;;;;;;;;;;;9.90;39.10;;;;;;5030867;28;19980;-77
2022/01/21 14:29:58;;;;;;;;;;;9.80;39.70;;;;;;5040421;28;19987;-77
2022/01/21 14:32:35;;;;;;;;;;;9.90;40.00;;;;;;5046606;28;19982;-78
2022/01/21 14:35:05;;;;;;;;;;;9.80;39.40;;;;;;5061490;28;19924;-77
2022/01/21 14:37:35;;;;;;;;;;;9.90;39.90;;;;;;5031296;28;19925;-77
2022/01/21 14:40:03;;;;;;;;;;;9.70;38.70;;;;;;5040968;28;19924;-78